createdAt,value
2023-06-10T00:00:08.458Z,16.70
2023-06-10T00:03:03.081Z,16.69
2023-06-10T00:05:32.433Z,16.69
2023-06-10T00:08:00.426Z,16.68
2023-06-10T00:10:28.882Z,16.67
2023-06-10T00:12:57.306Z,16.64
2023-06-10T00:15:25.352Z,16.62
2023-06-10T00:17:56.318Z,16.61
2023-06-10T00:20:25.030Z,16.58
2023-06-10T00:22:53.345Z,16.57
2023-06-10T00:25:21.518Z,16.56
2023-06-10T00:27:49.308Z,16.57
2023-06-10T00:30:17.124Z,16.57
2023-06-10T00:32:45.100Z,16.56
2023-06-10T00:35:13.146Z,16.58
2023-06-10T00:37:41.543Z,16.58
2023-06-10T00:40:12.007Z,16.59
2023-06-10T00:42:39.985Z,16.58
2023-06-10T00:45:09.263Z,16.58
2023-06-10T00:47:38.359Z,16.58
2023-06-10T00:50:07.617Z,16.57
2023-06-10T00:52:36.781Z,16.57
2023-06-10T00:55:05.491Z,16.57
2023-06-10T00:57:33.698Z,16.59
2023-06-10T01:00:01.491Z,16.58
2023-06-10T01:02:30.581Z,16.57
2023-06-10T01:05:02.754Z,16.55
2023-06-10T01:07:54.373Z,16.54
2023-06-10T01:10:36.433Z,16.55
2023-06-10T01:13:08.124Z,16.57
2023-06-10T01:15:36.295Z,16.57
2023-06-10T01:18:16.560Z,16.56
2023-06-10T01:20:47.921Z,16.57
2023-06-10T01:23:16.910Z,16.58
2023-06-10T01:25:52.974Z,16.56
2023-06-10T01:28:31.090Z,16.55
2023-06-10T01:31:22.529Z,16.54
2023-06-10T01:33:53.215Z,16.52
2023-06-10T01:36:22.977Z,16.53
2023-06-10T01:38:53.896Z,16.52
2023-06-10T01:41:22.381Z,16.51
2023-06-10T01:43:50.280Z,16.52
2023-06-10T01:46:21.070Z,16.52
2023-06-10T01:48:49.336Z,16.54
2023-06-10T01:51:17.507Z,16.54
2023-06-10T01:53:45.287Z,16.52
2023-06-10T01:56:17.894Z,16.50
2023-06-10T01:58:46.952Z,16.49
2023-06-10T02:01:15.506Z,16.50
2023-06-10T02:03:43.486Z,16.51
2023-06-10T02:06:11.260Z,16.50
2023-06-10T02:08:39.141Z,16.51
2023-06-10T02:11:08.221Z,16.49
2023-06-10T02:13:36.300Z,16.48
2023-06-10T02:16:04.178Z,16.46
2023-06-10T02:18:32.331Z,16.45
2023-06-10T02:21:00.205Z,16.44
2023-06-10T02:23:28.273Z,16.44
2023-06-10T02:25:56.585Z,16.41
2023-06-10T02:28:26.683Z,16.40
2023-06-10T02:30:54.647Z,16.37
2023-06-10T02:33:23.018Z,16.34
2023-06-10T02:35:52.189Z,16.31
2023-06-10T02:38:20.662Z,16.29
2023-06-10T02:40:48.617Z,16.27
2023-06-10T02:43:16.423Z,16.25
2023-06-10T02:45:46.154Z,16.23
2023-06-10T02:48:15.546Z,16.23
2023-06-10T02:50:43.498Z,16.22
2023-06-10T02:53:18.030Z,16.21
2023-06-10T02:55:49.965Z,16.20
2023-06-10T02:58:18.965Z,16.19
2023-06-10T03:00:46.934Z,16.17
2023-06-10T03:03:15.672Z,16.15
2023-06-10T03:05:49.950Z,16.14
2023-06-10T03:08:18.325Z,16.13
2023-06-10T03:10:46.418Z,16.11
2023-06-10T03:13:17.772Z,16.10
2023-06-10T03:15:47.275Z,16.09
2023-06-10T03:18:17.923Z,16.10
2023-06-10T03:20:46.615Z,16.12
2023-06-10T03:23:14.488Z,16.14
2023-06-10T03:25:42.313Z,16.16
2023-06-10T03:28:11.639Z,16.18
2023-06-10T03:30:39.620Z,16.20
2023-06-10T03:33:08.077Z,16.22
2023-06-10T03:35:36.681Z,16.27
2023-06-10T03:38:05.088Z,16.32
2023-06-10T03:40:33.285Z,16.35
2023-06-10T03:43:01.935Z,16.39
2023-06-10T03:45:30.477Z,16.43
2023-06-10T03:47:58.905Z,16.46
2023-06-10T03:50:32.567Z,16.50
2023-06-10T03:53:00.809Z,16.57
2023-06-10T03:55:28.982Z,16.64
2023-06-10T03:57:57.931Z,16.68
2023-06-10T04:00:26.408Z,16.68
2023-06-10T04:02:54.303Z,16.67
2023-06-10T04:05:34.927Z,16.70
2023-06-10T04:08:02.821Z,16.70
2023-06-10T04:10:30.648Z,16.74
2023-06-10T04:12:58.583Z,16.78
2023-06-10T04:15:28.511Z,16.82
2023-06-10T04:17:57.763Z,16.87
2023-06-10T04:20:25.838Z,16.92
2023-06-10T04:22:54.562Z,16.97
2023-06-10T04:25:23.242Z,16.98
2023-06-10T04:27:51.360Z,17.00
2023-06-10T04:30:20.244Z,17.03
2023-06-10T04:32:48.751Z,17.05
2023-06-10T04:35:18.230Z,17.06
2023-06-10T04:37:48.381Z,17.12
2023-06-10T04:40:17.067Z,17.14
2023-06-10T04:42:45.722Z,17.12
2023-06-10T04:45:17.776Z,17.14
2023-06-10T04:47:45.858Z,17.14
2023-06-10T04:50:13.684Z,17.15
2023-06-10T04:52:42.694Z,17.18
2023-06-10T04:55:12.182Z,17.18
2023-06-10T04:57:40.614Z,17.16
2023-06-10T05:00:09.630Z,17.17
2023-06-10T05:02:37.548Z,17.20
2023-06-10T05:05:05.780Z,17.23
2023-06-10T05:07:33.694Z,17.27
2023-06-10T05:10:02.737Z,17.31
2023-06-10T05:12:30.809Z,17.36
2023-06-10T05:14:58.732Z,17.42
2023-06-10T05:17:26.696Z,17.48
2023-06-10T05:19:54.711Z,17.57
2023-06-10T05:22:25.084Z,17.65
2023-06-10T05:24:53.612Z,17.73
2023-06-10T05:27:22.334Z,17.82
2023-06-10T05:29:50.604Z,17.89
2023-06-10T05:32:19.246Z,17.96
2023-06-10T05:34:47.273Z,18.04
2023-06-10T05:37:15.857Z,18.09
2023-06-10T05:39:43.651Z,18.12
2023-06-10T05:42:11.670Z,18.16
2023-06-10T05:44:39.725Z,18.19
2023-06-10T05:47:07.852Z,18.24
2023-06-10T05:49:35.877Z,18.31
2023-06-10T05:52:04.021Z,18.41
2023-06-10T05:54:32.025Z,18.51
2023-06-10T05:56:59.907Z,18.59
2023-06-10T05:59:27.903Z,18.67
2023-06-10T06:01:55.921Z,18.75
2023-06-10T06:04:23.817Z,18.84
2023-06-10T06:06:51.860Z,18.92
2023-06-10T06:09:19.968Z,19.00
2023-06-10T06:11:47.969Z,19.06
2023-06-10T06:14:15.853Z,19.12
2023-06-10T06:16:43.911Z,19.18
2023-06-10T06:19:12.416Z,19.25
2023-06-10T06:21:40.277Z,19.33
2023-06-10T06:24:08.519Z,19.43
2023-06-10T06:26:36.454Z,19.52
2023-06-10T06:29:04.445Z,19.57
2023-06-10T06:31:32.719Z,19.66
2023-06-10T06:34:00.803Z,19.76
2023-06-10T06:36:28.705Z,19.86
2023-06-10T06:38:56.796Z,19.92
2023-06-10T06:41:28.435Z,19.99
2023-06-10T06:43:57.103Z,20.07
2023-06-10T06:46:38.491Z,20.13
2023-06-10T06:49:06.457Z,20.12
2023-06-10T06:51:34.334Z,20.13
2023-06-10T06:54:02.864Z,20.18
2023-06-10T06:56:30.784Z,20.24
2023-06-10T06:58:58.625Z,20.26
2023-06-10T07:01:26.651Z,20.30
2023-06-10T07:03:54.633Z,20.37
2023-06-10T07:06:22.681Z,20.45
2023-06-10T07:08:50.523Z,20.48
2023-06-10T07:11:19.031Z,20.47
2023-06-10T07:13:46.991Z,20.46
2023-06-10T07:16:15.574Z,20.48
2023-06-10T07:18:43.472Z,20.50
2023-06-10T07:21:11.457Z,20.51
2023-06-10T07:23:43.855Z,20.56
2023-06-10T07:26:14.387Z,20.66
2023-06-10T07:28:43.164Z,20.76
2023-06-10T07:31:16.786Z,20.86
2023-06-10T07:33:47.124Z,20.94
2023-06-10T07:36:23.065Z,20.98
2023-06-10T07:38:51.083Z,21.00
2023-06-10T07:41:20.622Z,21.01
2023-06-10T07:43:48.711Z,21.02
2023-06-10T07:46:17.280Z,21.02
2023-06-10T07:48:45.488Z,21.06
2023-06-10T07:51:13.563Z,21.13
2023-06-10T07:53:41.652Z,21.16
2023-06-10T07:56:09.567Z,21.20
2023-06-10T07:58:37.567Z,21.25
2023-06-10T08:01:05.623Z,21.20
2023-06-10T08:03:33.867Z,21.15
2023-06-10T08:06:02.224Z,21.14
2023-06-10T08:08:30.322Z,21.21
2023-06-10T08:10:59.928Z,21.25
2023-06-10T08:13:27.815Z,21.25
2023-06-10T08:15:56.404Z,21.29
2023-06-10T08:18:24.348Z,21.37
2023-06-10T08:20:52.359Z,21.45
2023-06-10T08:23:20.897Z,21.53
2023-06-10T08:25:48.760Z,21.58
2023-06-10T08:28:16.804Z,21.62
2023-06-10T08:30:45.348Z,21.60
2023-06-10T08:33:13.416Z,21.58
2023-06-10T08:35:41.433Z,21.56
2023-06-10T08:38:09.182Z,21.55
2023-06-10T08:40:38.164Z,21.54
2023-06-10T08:43:16.457Z,21.59
2023-06-10T08:45:49.808Z,21.62
2023-06-10T08:48:18.353Z,21.61
2023-06-10T08:50:48.802Z,21.64
2023-06-10T08:53:20.139Z,21.70
2023-06-10T08:55:53.150Z,21.78
2023-06-10T08:58:21.846Z,21.93
2023-06-10T09:00:50.053Z,22.10
2023-06-10T09:03:19.236Z,22.22
2023-06-10T09:05:47.384Z,22.27
2023-06-10T09:08:17.150Z,22.28
2023-06-10T09:10:47.371Z,22.32
2023-06-10T09:13:16.878Z,22.32
2023-06-10T09:15:45.886Z,22.28
2023-06-10T09:18:14.450Z,22.22
2023-06-10T09:20:44.316Z,22.22
2023-06-10T09:23:13.419Z,22.29
2023-06-10T09:25:41.454Z,22.38
2023-06-10T09:28:16.662Z,22.48
2023-06-10T09:30:44.735Z,22.58
2023-06-10T09:33:16.446Z,22.62
2023-06-10T09:35:49.447Z,22.62
2023-06-10T09:38:22.950Z,22.64
2023-06-10T09:40:55.452Z,22.70
2023-06-10T09:43:24.089Z,22.75
2023-06-10T09:45:55.104Z,22.80
2023-06-10T09:48:24.896Z,22.87
2023-06-10T09:50:53.240Z,22.90
2023-06-10T09:53:22.059Z,22.90
2023-06-10T09:55:50.019Z,22.92
2023-06-10T09:58:18.009Z,22.92
2023-06-10T10:00:54.992Z,23.01
2023-06-10T10:03:25.974Z,23.13
2023-06-10T10:06:00.711Z,23.24
2023-06-10T10:08:29.367Z,23.39
2023-06-10T10:10:59.236Z,23.49
2023-06-10T10:13:29.072Z,23.55
2023-06-10T10:16:01.229Z,23.66
2023-06-10T10:18:32.429Z,23.73
2023-06-10T10:21:08.084Z,23.79
2023-06-10T10:23:45.620Z,23.89
2023-06-10T10:26:15.014Z,24.10
2023-06-10T10:28:49.357Z,24.33
2023-06-10T10:31:20.291Z,24.42
2023-06-10T10:34:02.172Z,24.45
2023-06-10T10:36:30.707Z,24.48
2023-06-10T10:38:59.780Z,24.49
2023-06-10T10:41:29.545Z,24.59
2023-06-10T10:43:59.076Z,24.69
2023-06-10T10:46:27.170Z,24.90
2023-06-10T10:48:57.672Z,25.07
2023-06-10T10:51:25.959Z,25.19
2023-06-10T10:54:15.924Z,25.26
2023-06-10T10:57:20.063Z,25.25
2023-06-10T11:00:04.654Z,25.31
2023-06-10T11:02:33.278Z,25.45
2023-06-10T11:05:03.073Z,25.53
2023-06-10T11:07:36.347Z,25.64
2023-06-10T11:10:11.755Z,25.70
2023-06-10T11:12:48.472Z,25.67
2023-06-10T11:15:27.045Z,25.58
2023-06-10T11:18:11.902Z,25.43
2023-06-10T11:20:49.677Z,25.27
2023-06-10T11:23:29.987Z,25.26
2023-06-10T11:26:36.257Z,25.17
2023-06-10T11:29:08.463Z,25.07
2023-06-10T11:31:45.582Z,25.16
2023-06-10T11:34:31.258Z,25.37
2023-06-10T11:37:01.290Z,25.49
2023-06-10T11:39:30.808Z,25.65
2023-06-10T11:44:52.325Z,25.91
2023-06-10T11:47:21.328Z,26.01
2023-06-10T11:49:58.847Z,25.96
2023-06-10T11:52:39.074Z,25.97
2023-06-10T11:55:10.849Z,25.82
2023-06-10T11:57:47.384Z,25.66
2023-06-10T12:00:18.200Z,25.43
2023-06-10T12:02:46.451Z,25.24
2023-06-10T12:05:19.416Z,25.15
2023-06-10T12:07:47.240Z,25.10
2023-06-10T12:10:27.175Z,25.04
2023-06-10T12:12:56.419Z,25.02
2023-06-10T12:15:26.671Z,25.02
2023-06-10T12:17:54.626Z,24.99
2023-06-10T12:20:29.284Z,24.95
2023-06-10T12:22:57.312Z,24.89
2023-06-10T12:25:27.914Z,24.89
2023-06-10T12:27:57.003Z,25.08
2023-06-10T12:30:27.694Z,25.29
2023-06-10T12:32:57.085Z,25.49
2023-06-10T12:35:28.759Z,25.70
2023-06-10T12:38:06.197Z,25.83
2023-06-10T12:40:37.100Z,25.87
2023-06-10T12:43:08.145Z,25.93
2023-06-10T12:45:46.307Z,26.03
2023-06-10T12:48:22.519Z,26.04
2023-06-10T12:50:55.550Z,26.07
2023-06-10T12:53:24.960Z,26.09
2023-06-10T12:55:53.978Z,26.15
2023-06-10T12:58:23.158Z,26.22
2023-06-10T13:00:54.287Z,26.32
2023-06-10T13:03:23.225Z,26.45
2023-06-10T13:05:51.228Z,26.41
2023-06-10T13:08:19.241Z,26.33
2023-06-10T13:10:47.186Z,26.28
2023-06-10T13:13:15.194Z,26.13
2023-06-10T13:24:28.317Z,25.69
2023-06-10T13:26:57.454Z,25.55
2023-06-10T13:29:28.002Z,25.47
2023-06-10T13:31:55.950Z,25.30
2023-06-10T13:34:24.106Z,25.18
2023-06-10T13:36:52.152Z,25.10
2023-06-10T13:39:20.089Z,25.10
2023-06-10T13:41:47.920Z,25.04
2023-06-10T13:44:16.311Z,24.98
2023-06-10T13:46:46.222Z,25.04
2023-06-10T13:49:15.494Z,25.23
2023-06-10T13:51:43.662Z,25.38
2023-06-10T13:54:11.620Z,25.54
2023-06-10T13:56:40.012Z,25.68
2023-06-10T13:59:08.568Z,25.77
2023-06-10T14:01:40.456Z,25.87
2023-06-10T14:04:08.509Z,26.00
2023-06-10T14:06:36.401Z,26.03
2023-06-10T14:09:06.458Z,25.90
2023-06-10T14:11:35.188Z,25.80
2023-06-10T14:14:03.597Z,25.69
2023-06-10T14:16:31.472Z,25.61
2023-06-10T14:18:59.380Z,25.60
2023-06-10T14:21:27.146Z,25.59
2023-06-10T14:23:55.268Z,25.59
2023-06-10T14:26:23.294Z,25.61
2023-06-10T14:28:51.510Z,25.64
2023-06-10T14:31:20.008Z,25.74
2023-06-10T14:33:48.233Z,25.90
2023-06-10T14:36:16.208Z,25.89
2023-06-10T14:38:44.167Z,25.83
2023-06-10T14:41:12.117Z,25.72
2023-06-10T14:43:40.144Z,25.60
2023-06-10T14:46:08.157Z,25.53
2023-06-10T14:48:37.176Z,25.49
2023-06-10T14:51:05.204Z,25.44
2023-06-10T14:53:33.049Z,25.39
2023-06-10T14:56:00.989Z,25.31
2023-06-10T14:58:28.875Z,25.26
2023-06-10T15:00:56.915Z,25.27
2023-06-10T15:03:25.473Z,25.29
2023-06-10T15:05:54.181Z,25.30
2023-06-10T15:08:22.237Z,25.27
2023-06-10T15:10:50.385Z,25.24
2023-06-10T15:13:18.335Z,25.23
2023-06-10T15:15:46.431Z,25.26
2023-06-10T15:18:23.155Z,25.31
2023-06-10T15:20:57.910Z,25.40
2023-06-10T15:23:26.049Z,25.46
2023-06-10T15:25:53.939Z,25.52
2023-06-10T15:28:25.222Z,25.64
2023-06-10T15:30:55.785Z,25.71
2023-06-10T15:33:23.656Z,25.76
2023-06-10T15:35:53.881Z,25.79
2023-06-10T15:38:21.844Z,25.75
2023-06-10T15:40:49.684Z,25.63
2023-06-10T15:43:17.549Z,25.49
2023-06-10T15:45:45.799Z,25.29
2023-06-10T15:48:14.227Z,25.13
2023-06-10T15:50:42.218Z,25.00
2023-06-10T15:53:10.386Z,24.97
2023-06-10T15:55:38.508Z,24.95
2023-06-10T15:58:08.349Z,24.91
2023-06-10T16:00:36.412Z,24.89
2023-06-10T16:03:04.521Z,24.88
2023-06-10T16:05:32.819Z,24.84
2023-06-10T16:08:03.049Z,24.81
2023-06-10T16:10:31.533Z,24.80
2023-06-10T16:12:59.378Z,24.74
2023-06-10T16:15:30.484Z,24.68
2023-06-10T16:18:01.485Z,24.56
2023-06-10T16:20:29.797Z,24.31
2023-06-10T16:22:57.839Z,23.93
2023-06-10T16:25:29.003Z,23.62
2023-06-10T16:27:58.723Z,23.48
2023-06-10T16:30:27.311Z,23.28
2023-06-10T16:32:55.345Z,23.15
2023-06-10T16:35:23.424Z,23.04
2023-06-10T16:37:51.963Z,23.03
2023-06-10T16:40:20.369Z,23.01
2023-06-10T16:42:48.413Z,22.86
2023-06-10T16:45:25.188Z,22.46
2023-06-10T16:47:57.805Z,21.63
2023-06-10T16:50:25.856Z,21.20
2023-06-10T16:52:53.869Z,20.99
2023-06-10T16:55:22.271Z,20.86
2023-06-10T16:57:50.037Z,20.59
2023-06-10T17:00:18.551Z,20.38
2023-06-10T17:02:46.442Z,20.19
2023-06-10T17:05:15.056Z,20.06
2023-06-10T17:07:43.192Z,19.94
2023-06-10T17:10:11.262Z,19.81
2023-06-10T17:12:42.493Z,19.73
2023-06-10T17:15:10.951Z,19.69
2023-06-10T17:17:40.021Z,19.69
2023-06-10T17:20:08.714Z,19.73
2023-06-10T17:22:36.608Z,19.74
2023-06-10T17:25:04.856Z,19.71
2023-06-10T17:27:32.723Z,19.69
2023-06-10T17:30:03.905Z,19.69
2023-06-10T17:32:34.691Z,19.70
2023-06-10T17:35:02.736Z,19.69
2023-06-10T17:37:30.699Z,19.67
2023-06-10T17:39:58.825Z,19.66
2023-06-10T17:42:27.004Z,19.65
2023-06-10T17:44:55.046Z,19.66
2023-06-10T17:47:23.018Z,19.66
2023-06-10T17:49:51.037Z,19.59
2023-06-10T17:52:19.172Z,19.51
2023-06-10T17:54:47.070Z,19.48
2023-06-10T17:57:14.995Z,19.44
2023-06-10T17:59:43.499Z,19.41
2023-06-10T18:02:11.392Z,19.40
2023-06-10T18:04:39.548Z,19.40
2023-06-10T18:07:07.487Z,19.41
2023-06-10T18:09:35.504Z,19.42
2023-06-10T18:12:03.905Z,19.43
2023-06-10T18:14:31.835Z,19.44
2023-06-10T18:16:59.698Z,19.45
2023-06-10T18:19:27.881Z,19.48
2023-06-10T18:21:55.802Z,19.53
2023-06-10T18:24:23.957Z,19.55
2023-06-10T18:26:52.064Z,19.54
2023-06-10T18:29:23.251Z,19.53
2023-06-10T18:31:51.214Z,19.52
2023-06-10T18:34:19.409Z,19.52
2023-06-10T18:36:50.376Z,19.52
2023-06-10T18:39:18.288Z,19.51
2023-06-10T18:41:46.197Z,19.49
2023-06-10T18:44:14.360Z,19.50
2023-06-10T18:46:42.307Z,19.49
2023-06-10T18:49:10.345Z,19.49
2023-06-10T18:51:38.261Z,19.49
2023-06-10T18:54:06.605Z,19.50
2023-06-10T18:56:34.671Z,19.49
2023-06-10T18:59:02.766Z,19.49
2023-06-10T19:01:30.726Z,19.45
2023-06-10T19:03:58.708Z,19.40
2023-06-10T19:06:26.681Z,19.39
2023-06-10T19:08:57.269Z,19.36
2023-06-10T19:11:26.269Z,19.32
2023-06-10T19:13:54.308Z,19.27
2023-06-10T19:16:22.283Z,19.21
2023-06-10T19:18:50.560Z,19.16
2023-06-10T19:21:18.839Z,19.12
2023-06-10T19:23:47.379Z,19.10
2023-06-10T19:26:15.551Z,19.07
2023-06-10T19:28:43.584Z,19.02
2023-06-10T19:31:11.532Z,19.01
2023-06-10T19:33:39.461Z,19.00
2023-06-10T19:36:10.069Z,18.97
2023-06-10T19:38:39.182Z,18.93
2023-06-10T19:41:07.119Z,18.91
2023-06-10T19:43:35.121Z,18.91
2023-06-10T19:46:03.269Z,18.90
2023-06-10T19:48:31.748Z,18.88
2023-06-10T19:50:59.720Z,18.87
2023-06-10T19:53:30.217Z,18.82
2023-06-10T19:56:01.005Z,18.79
2023-06-10T19:58:28.993Z,18.75
2023-06-10T20:00:57.418Z,18.69
2023-06-10T20:03:25.389Z,18.64
2023-06-10T20:05:53.580Z,18.63
2023-06-10T20:08:22.547Z,18.59
2023-06-10T20:10:50.564Z,18.56
2023-06-10T20:13:18.359Z,18.51
2023-06-10T20:15:46.254Z,18.49
2023-06-10T20:18:14.269Z,18.44
2023-06-10T20:20:42.179Z,18.38
2023-06-10T20:23:10.190Z,18.34
2023-06-10T20:25:38.052Z,18.31
2023-06-10T20:28:06.134Z,18.30
2023-06-10T20:30:34.125Z,18.28
2023-06-10T20:33:02.058Z,18.30
2023-06-10T20:35:30.146Z,18.30
2023-06-10T20:37:58.175Z,18.29
2023-06-10T20:40:26.165Z,18.29
2023-06-10T20:42:54.028Z,18.29
2023-06-10T20:45:22.024Z,18.26
2023-06-10T20:47:50.109Z,18.26
2023-06-10T20:50:18.179Z,18.24
2023-06-10T20:52:46.220Z,18.22
2023-06-10T20:55:14.261Z,18.19
2023-06-10T20:57:42.263Z,18.17
2023-06-10T21:00:10.573Z,18.16
2023-06-10T21:02:38.751Z,18.17
2023-06-10T21:05:07.702Z,18.16
2023-06-10T21:07:35.984Z,18.14
2023-06-10T21:10:03.996Z,18.12
2023-06-10T21:12:32.569Z,18.12
2023-06-10T21:15:00.666Z,18.12
2023-06-10T21:17:29.053Z,18.12
2023-06-10T21:19:57.007Z,18.12
2023-06-10T21:22:24.919Z,18.09
2023-06-10T21:24:52.709Z,18.07
2023-06-10T21:27:22.915Z,18.06
2023-06-10T21:29:51.012Z,18.03
2023-06-10T21:32:19.646Z,17.99
2023-06-10T21:34:47.575Z,17.94
2023-06-10T21:37:16.871Z,17.90
2023-06-10T21:39:44.901Z,17.89
2023-06-10T21:42:12.992Z,17.88
2023-06-10T21:44:41.181Z,17.88
2023-06-10T21:47:09.324Z,17.88
2023-06-10T21:49:37.387Z,17.88
2023-06-10T21:52:08.599Z,17.89
2023-06-10T21:54:36.671Z,17.88
2023-06-10T21:57:04.912Z,17.88
2023-06-10T21:59:33.026Z,17.89
2023-06-10T22:02:01.729Z,17.89
2023-06-10T22:04:30.125Z,17.88
2023-06-10T22:06:59.956Z,17.87
2023-06-10T22:09:28.110Z,17.88
2023-06-10T22:11:56.179Z,17.86
2023-06-10T22:14:24.359Z,17.83
2023-06-10T22:16:53.285Z,17.81
2023-06-10T22:19:21.113Z,17.79
2023-06-10T22:21:49.092Z,17.77
2023-06-10T22:24:17.346Z,17.74
2023-06-10T22:26:53.384Z,17.72
2023-06-10T22:29:22.032Z,17.70
2023-06-10T22:31:50.092Z,17.69
2023-06-10T22:34:18.749Z,17.68
2023-06-10T22:36:46.762Z,17.68
2023-06-10T22:39:14.950Z,17.65
2023-06-10T22:41:44.795Z,17.65
2023-06-10T22:44:12.749Z,17.66
2023-06-10T22:46:40.764Z,17.65
2023-06-10T22:49:08.767Z,17.64
2023-06-10T22:51:36.862Z,17.63
2023-06-10T22:54:05.077Z,17.64
2023-06-10T22:56:33.362Z,17.64
2023-06-10T22:59:03.655Z,17.64
2023-06-10T23:01:31.605Z,17.62
2023-06-10T23:03:59.588Z,17.62
2023-06-10T23:06:27.969Z,17.60
2023-06-10T23:08:55.990Z,17.58
2023-06-10T23:11:24.042Z,17.54
2023-06-10T23:13:53.335Z,17.52
2023-06-10T23:16:21.293Z,17.51
2023-06-10T23:18:49.297Z,17.48
2023-06-10T23:21:19.931Z,17.47
2023-06-10T23:23:52.505Z,17.44
2023-06-10T23:26:22.158Z,17.44
2023-06-10T23:28:50.312Z,17.42
2023-06-10T23:31:18.538Z,17.39
2023-06-10T23:33:47.120Z,17.39
2023-06-10T23:36:17.313Z,17.37
2023-06-10T23:38:45.188Z,17.36
2023-06-10T23:41:13.180Z,17.34
2023-06-10T23:43:41.197Z,17.31
2023-06-10T23:46:09.109Z,17.29
2023-06-10T23:48:37.132Z,17.29
2023-06-10T23:51:06.569Z,17.30
2023-06-10T23:53:34.570Z,17.28
2023-06-10T23:56:02.917Z,17.23
2023-06-10T23:58:31.104Z,17.22
